sensor_id;sensor_type;location;lat;lon;timestamp;pressure;altitude;pressure_sealevel;temperature;humidity
10176;BME280;18221;38.704;0.152;2023-09-19T00:11:24;99045.25;;;28.82;48.42
10176;BME280;18221;38.704;0.152;2023-09-19T00:13:53;99056.66;;;28.74;48.55
10176;BME280;18221;38.704;0.152;2023-09-19T00:16:21;99047.78;;;28.62;48.92
10176;BME280;18221;38.704;0.152;2023-09-19T00:18:49;99055.38;;;28.60;49.07
10176;BME280;18221;38.704;0.152;2023-09-19T00:21:18;99051.75;;;28.54;49.22
10176;BME280;18221;38.704;0.152;2023-09-19T00:23:46;99054.72;;;28.53;49.45
10176;BME280;18221;38.704;0.152;2023-09-19T00:26:13;99052.59;;;28.55;49.54
10176;BME280;18221;38.704;0.152;2023-09-19T00:28:43;99047.78;;;28.62;49.01
10176;BME280;18221;38.704;0.152;2023-09-19T00:31:11;99044.81;;;28.68;48.86
10176;BME280;18221;38.704;0.152;2023-09-19T00:33:39;99045.78;;;28.79;48.65
10176;BME280;18221;38.704;0.152;2023-09-19T00:36:07;99042.81;;;28.81;48.55
10176;BME280;18221;38.704;0.152;2023-09-19T00:38:35;99040.25;;;28.74;48.64
10176;BME280;18221;38.704;0.152;2023-09-19T00:41:03;99045.22;;;28.77;48.62
10176;BME280;18221;38.704;0.152;2023-09-19T00:43:31;99048.50;;;28.79;48.10
10176;BME280;18221;38.704;0.152;2023-09-19T00:46:02;99050.72;;;28.82;48.24
10176;BME280;18221;38.704;0.152;2023-09-19T00:48:37;99049.16;;;28.86;47.96
10176;BME280;18221;38.704;0.152;2023-09-19T00:51:11;99044.47;;;28.87;47.72
10176;BME280;18221;38.704;0.152;2023-09-19T00:53:40;99048.81;;;28.83;47.77
10176;BME280;18221;38.704;0.152;2023-09-19T00:56:13;99049.66;;;28.83;47.69
10176;BME280;18221;38.704;0.152;2023-09-19T00:58:41;99041.97;;;28.80;47.94
10176;BME280;18221;38.704;0.152;2023-09-19T01:01:11;99038.84;;;28.71;47.47
10176;BME280;18221;38.704;0.152;2023-09-19T01:03:41;99041.13;;;28.58;47.27
10176;BME280;18221;38.704;0.152;2023-09-19T01:06:09;99033.34;;;28.66;47.26
10176;BME280;18221;38.704;0.152;2023-09-19T01:08:37;99035.28;;;28.71;46.53
10176;BME280;18221;38.704;0.152;2023-09-19T01:11:14;99041.09;;;28.74;46.41
10176;BME280;18221;38.704;0.152;2023-09-19T01:13:56;99046.03;;;28.77;45.46
10176;BME280;18221;38.704;0.152;2023-09-19T01:16:50;99035.72;;;28.85;44.97
10176;BME280;18221;38.704;0.152;2023-09-19T01:23:01;99030.47;;;28.78;43.52
10176;BME280;18221;38.704;0.152;2023-09-19T01:26:18;99028.25;;;28.75;42.12
10176;BME280;18221;38.704;0.152;2023-09-19T01:29:13;99028.25;;;28.75;41.98
10176;BME280;18221;38.704;0.152;2023-09-19T01:31:49;99025.97;;;28.67;41.58
10176;BME280;18221;38.704;0.152;2023-09-19T01:34:20;99021.56;;;28.66;40.82
10176;BME280;18221;38.704;0.152;2023-09-19T01:36:48;99017.56;;;28.52;41.07
10176;BME280;18221;38.704;0.152;2023-09-19T01:39:16;99006.25;;;28.43;40.55
10176;BME280;18221;38.704;0.152;2023-09-19T01:42:01;99011.16;;;28.41;40.78
10176;BME280;18221;38.704;0.152;2023-09-19T01:44:44;99004.91;;;28.46;41.00
10176;BME280;18221;38.704;0.152;2023-09-19T01:47:26;99003.25;;;28.45;40.92
10176;BME280;18221;38.704;0.152;2023-09-19T01:50:01;99004.88;;;28.41;40.30
10176;BME280;18221;38.704;0.152;2023-09-19T01:52:42;99003.78;;;28.42;40.02
10176;BME280;18221;38.704;0.152;2023-09-19T01:55:15;99000.47;;;28.40;39.53
10176;BME280;18221;38.704;0.152;2023-09-19T01:57:57;98999.72;;;28.44;40.15
10176;BME280;18221;38.704;0.152;2023-09-19T02:00:29;99006.38;;;28.53;40.70
10176;BME280;18221;38.704;0.152;2023-09-19T02:03:03;99006.38;;;28.53;41.08
10176;BME280;18221;38.704;0.152;2023-09-19T02:05:31;99010.00;;;28.59;41.06
10176;BME280;18221;38.704;0.152;2023-09-19T02:07:59;99006.94;;;28.55;41.51
10176;BME280;18221;38.704;0.152;2023-09-19T02:10:27;99005.44;;;28.43;41.47
10176;BME280;18221;38.704;0.152;2023-09-19T02:12:55;99004.81;;;28.36;40.08
10176;BME280;18221;38.704;0.152;2023-09-19T02:15:25;98997.38;;;28.31;37.73
10176;BME280;18221;38.704;0.152;2023-09-19T02:17:53;98999.34;;;28.36;37.61
10176;BME280;18221;38.704;0.152;2023-09-19T02:20:24;98986.38;;;28.48;37.81
10176;BME280;18221;38.704;0.152;2023-09-19T02:22:53;98994.66;;;28.58;39.00
10176;BME280;18221;38.704;0.152;2023-09-19T02:25:21;98989.97;;;28.53;39.02
10176;BME280;18221;38.704;0.152;2023-09-19T02:27:48;98985.81;;;28.46;38.45
10176;BME280;18221;38.704;0.152;2023-09-19T02:30:18;98985.81;;;28.46;37.05
10176;BME280;18221;38.704;0.152;2023-09-19T02:32:47;98985.59;;;28.52;37.11
10176;BME280;18221;38.704;0.152;2023-09-19T02:35:16;98985.53;;;28.47;36.46
10176;BME280;18221;38.704;0.152;2023-09-19T02:37:47;98988.84;;;28.49;36.10
10176;BME280;18221;38.704;0.152;2023-09-19T02:40:16;98980.91;;;28.48;35.71
10176;BME280;18221;38.704;0.152;2023-09-19T02:42:48;98986.75;;;28.56;37.02
10176;BME280;18221;38.704;0.152;2023-09-19T02:45:17;98976.66;;;28.57;38.01
10176;BME280;18221;38.704;0.152;2023-09-19T02:47:45;98974.50;;;28.37;37.88
10176;BME280;18221;38.704;0.152;2023-09-19T02:50:14;98971.59;;;28.22;36.92
10176;BME280;18221;38.704;0.152;2023-09-19T02:52:46;98965.16;;;28.11;36.68
10176;BME280;18221;38.704;0.152;2023-09-19T02:55:16;98968.09;;;28.05;37.45
10176;BME280;18221;38.704;0.152;2023-09-19T02:57:49;98974.47;;;27.94;37.89
10176;BME280;18221;38.704;0.152;2023-09-19T03:00:20;98970.44;;;27.80;38.53
10176;BME280;18221;38.704;0.152;2023-09-19T03:02:48;98978.66;;;27.63;39.60
10176;BME280;18221;38.704;0.152;2023-09-19T03:05:17;98980.03;;;27.82;39.72
10176;BME280;18221;38.704;0.152;2023-09-19T03:07:47;98968.03;;;27.83;39.55
10176;BME280;18221;38.704;0.152;2023-09-19T03:10:17;98957.97;;;27.84;38.65
10176;BME280;18221;38.704;0.152;2023-09-19T03:12:46;98961.69;;;27.78;37.79
10176;BME280;18221;38.704;0.152;2023-09-19T03:15:14;98972.84;;;27.76;37.17
10176;BME280;18221;38.704;0.152;2023-09-19T03:17:43;98967.69;;;27.80;37.13
10176;BME280;18221;38.704;0.152;2023-09-19T03:20:12;98963.66;;;27.82;37.13
10176;BME280;18221;38.704;0.152;2023-09-19T03:22:43;98955.59;;;27.71;36.61
10176;BME280;18221;38.704;0.152;2023-09-19T03:25:13;98965.09;;;27.68;36.80
10176;BME280;18221;38.704;0.152;2023-09-19T03:27:42;98959.78;;;27.78;36.21
10176;BME280;18221;38.704;0.152;2023-09-19T03:30:10;98969.09;;;27.82;35.92
10176;BME280;18221;38.704;0.152;2023-09-19T03:32:45;98957.25;;;27.93;35.84
10176;BME280;18221;38.704;0.152;2023-09-19T03:35:16;98964.03;;;27.91;35.54
10176;BME280;18221;38.704;0.152;2023-09-19T03:37:44;98968.66;;;27.90;35.06
10176;BME280;18221;38.704;0.152;2023-09-19T03:40:14;98966.63;;;27.81;34.55
10176;BME280;18221;38.704;0.152;2023-09-19T03:42:46;98955.88;;;27.74;34.55
10176;BME280;18221;38.704;0.152;2023-09-19T03:45:14;98957.88;;;27.79;34.79
10176;BME280;18221;38.704;0.152;2023-09-19T03:47:42;98954.91;;;27.80;34.73
10176;BME280;18221;38.704;0.152;2023-09-19T03:50:13;98951.81;;;27.93;34.37
10176;BME280;18221;38.704;0.152;2023-09-19T03:52:43;98955.91;;;27.96;34.06
10176;BME280;18221;38.704;0.152;2023-09-19T03:55:13;98953.16;;;27.74;33.60
10176;BME280;18221;38.704;0.152;2023-09-19T03:57:41;98949.88;;;27.72;34.41
10176;BME280;18221;38.704;0.152;2023-09-19T04:00:10;98947.06;;;27.67;33.60
10176;BME280;18221;38.704;0.152;2023-09-19T04:02:41;98956.84;;;27.63;33.18
10176;BME280;18221;38.704;0.152;2023-09-19T04:05:09;98948.66;;;27.63;32.78
10176;BME280;18221;38.704;0.152;2023-09-19T04:07:37;98943.06;;;27.75;32.80
10176;BME280;18221;38.704;0.152;2023-09-19T04:10:06;98941.66;;;27.89;32.24
10176;BME280;18221;38.704;0.152;2023-09-19T04:12:37;98932.06;;;27.86;31.72
10176;BME280;18221;38.704;0.152;2023-09-19T04:15:06;98931.88;;;27.93;31.66
10176;BME280;18221;38.704;0.152;2023-09-19T04:17:35;98921.78;;;27.93;30.86
10176;BME280;18221;38.704;0.152;2023-09-19T04:20:03;98926.47;;;27.98;30.24
10176;BME280;18221;38.704;0.152;2023-09-19T04:22:33;98924.50;;;27.93;30.28
10176;BME280;18221;38.704;0.152;2023-09-19T04:25:04;98926.81;;;28.01;30.24
10176;BME280;18221;38.704;0.152;2023-09-19T04:27:33;98917.16;;;27.94;30.04
10176;BME280;18221;38.704;0.152;2023-09-19T04:30:03;98918.28;;;27.98;29.80
10176;BME280;18221;38.704;0.152;2023-09-19T04:32:36;98914.78;;;27.81;30.04
10176;BME280;18221;38.704;0.152;2023-09-19T04:35:07;98905.38;;;27.72;30.18
10176;BME280;18221;38.704;0.152;2023-09-19T04:37:38;98904.22;;;27.84;30.28
10176;BME280;18221;38.704;0.152;2023-09-19T04:40:09;98906.28;;;27.99;30.01
10176;BME280;18221;38.704;0.152;2023-09-19T04:42:44;98920.72;;;27.94;31.30
10176;BME280;18221;38.704;0.152;2023-09-19T04:45:14;98927.97;;;28.05;31.82
10176;BME280;18221;38.704;0.152;2023-09-19T04:47:42;98929.06;;;28.04;33.32
10176;BME280;18221;38.704;0.152;2023-09-19T04:50:11;98928.06;;;27.94;35.29
10176;BME280;18221;38.704;0.152;2023-09-19T04:52:41;98933.25;;;27.95;35.83
10176;BME280;18221;38.704;0.152;2023-09-19T04:55:10;98923.69;;;27.93;36.12
10176;BME280;18221;38.704;0.152;2023-09-19T04:57:40;98941.31;;;27.85;37.19
10176;BME280;18221;38.704;0.152;2023-09-19T05:00:09;98947.66;;;27.91;36.96
10176;BME280;18221;38.704;0.152;2023-09-19T05:02:41;98945.06;;;28.01;36.22
10176;BME280;18221;38.704;0.152;2023-09-19T05:05:10;98945.84;;;27.96;36.84
10176;BME280;18221;38.704;0.152;2023-09-19T05:07:41;98941.88;;;27.87;38.28
10176;BME280;18221;38.704;0.152;2023-09-19T05:10:12;98941.72;;;27.94;39.21
10176;BME280;18221;38.704;0.152;2023-09-19T05:12:40;98938.31;;;28.03;38.77
10176;BME280;18221;38.704;0.152;2023-09-19T05:15:14;98936.75;;;28.07;38.31
10176;BME280;18221;38.704;0.152;2023-09-19T05:17:48;98936.41;;;28.04;38.05
10176;BME280;18221;38.704;0.152;2023-09-19T05:20:18;98938.97;;;28.10;37.64
10176;BME280;18221;38.704;0.152;2023-09-19T05:22:58;98938.56;;;28.02;38.31
10176;BME280;18221;38.704;0.152;2023-09-19T05:25:28;98942.03;;;27.97;38.05
10176;BME280;18221;38.704;0.152;2023-09-19T05:27:58;98940.75;;;27.83;38.22
10176;BME280;18221;38.704;0.152;2023-09-19T05:30:27;98939.84;;;27.78;38.11
10176;BME280;18221;38.704;0.152;2023-09-19T05:32:56;98946.34;;;27.93;38.22
10176;BME280;18221;38.704;0.152;2023-09-19T05:35:25;98951.38;;;28.01;38.58
10176;BME280;18221;38.704;0.152;2023-09-19T05:37:54;98961.66;;;27.94;39.45
10176;BME280;18221;38.704;0.152;2023-09-19T05:40:22;98961.44;;;27.79;40.24
10176;BME280;18221;38.704;0.152;2023-09-19T05:42:51;98968.72;;;27.74;39.74
10176;BME280;18221;38.704;0.152;2023-09-19T05:45:19;98970.22;;;27.65;39.09
10176;BME280;18221;38.704;0.152;2023-09-19T05:47:49;98978.00;;;27.56;35.15
10176;BME280;18221;38.704;0.152;2023-09-19T05:50:19;98983.78;;;27.60;33.20
10176;BME280;18221;38.704;0.152;2023-09-19T05:52:54;98989.38;;;27.86;33.70
10176;BME280;18221;38.704;0.152;2023-09-19T05:55:23;98996.19;;;27.67;35.63
10176;BME280;18221;38.704;0.152;2023-09-19T05:57:52;99003.22;;;27.63;34.92
10176;BME280;18221;38.704;0.152;2023-09-19T06:00:21;98994.00;;;27.69;34.09
10176;BME280;18221;38.704;0.152;2023-09-19T06:02:53;99001.13;;;27.70;33.16
10176;BME280;18221;38.704;0.152;2023-09-19T06:05:24;99001.91;;;27.66;32.84
10176;BME280;18221;38.704;0.152;2023-09-19T06:07:53;99000.84;;;27.50;33.59
10176;BME280;18221;38.704;0.152;2023-09-19T06:10:21;99007.91;;;27.51;33.88
10176;BME280;18221;38.704;0.152;2023-09-19T06:12:50;99014.06;;;27.58;34.12
10176;BME280;18221;38.704;0.152;2023-09-19T06:15:18;99025.13;;;27.51;34.24
10176;BME280;18221;38.704;0.152;2023-09-19T06:17:48;99026.78;;;27.52;34.37
10176;BME280;18221;38.704;0.152;2023-09-19T06:20:16;99029.66;;;27.63;34.88
10176;BME280;18221;38.704;0.152;2023-09-19T06:22:47;99033.88;;;27.70;34.84
10176;BME280;18221;38.704;0.152;2023-09-19T06:25:17;99038.28;;;27.71;35.23
10176;BME280;18221;38.704;0.152;2023-09-19T06:27:47;99047.50;;;27.70;35.23
10176;BME280;18221;38.704;0.152;2023-09-19T06:30:15;99043.72;;;27.71;35.62
10176;BME280;18221;38.704;0.152;2023-09-19T06:32:44;99048.28;;;27.66;35.93
10176;BME280;18221;38.704;0.152;2023-09-19T06:35:13;99053.06;;;27.75;36.33
10176;BME280;18221;38.704;0.152;2023-09-19T06:37:43;99069.16;;;27.77;36.01
10176;BME280;18221;38.704;0.152;2023-09-19T06:40:14;99067.59;;;27.97;36.01
10176;BME280;18221;38.704;0.152;2023-09-19T06:42:44;99071.22;;;28.03;35.93
10176;BME280;18221;38.704;0.152;2023-09-19T06:45:13;99065.75;;;28.20;36.00
10176;BME280;18221;38.704;0.152;2023-09-19T06:47:44;99060.88;;;28.43;36.45
10176;BME280;18221;38.704;0.152;2023-09-19T06:50:15;99066.75;;;28.52;37.13
10176;BME280;18221;38.704;0.152;2023-09-19T06:52:45;99071.53;;;28.45;37.75
10176;BME280;18221;38.704;0.152;2023-09-19T06:55:18;99062.16;;;28.57;36.99
10176;BME280;18221;38.704;0.152;2023-09-19T06:57:46;99048.72;;;28.72;36.51
10176;BME280;18221;38.704;0.152;2023-09-19T07:00:16;99039.25;;;28.80;36.55
10176;BME280;18221;38.704;0.152;2023-09-19T07:02:45;99042.63;;;28.92;36.89
10176;BME280;18221;38.704;0.152;2023-09-19T07:05:13;99045.41;;;28.97;37.57
10176;BME280;18221;38.704;0.152;2023-09-19T07:07:41;99044.72;;;29.07;38.37
10176;BME280;18221;38.704;0.152;2023-09-19T07:10:10;99055.47;;;29.18;38.06
10176;BME280;18221;38.704;0.152;2023-09-19T07:12:40;99048.25;;;29.07;38.90
10176;BME280;18221;38.704;0.152;2023-09-19T07:15:09;99049.91;;;28.82;40.12
10176;BME280;18221;38.704;0.152;2023-09-19T07:17:37;99052.91;;;28.80;39.88
10176;BME280;18221;38.704;0.152;2023-09-19T07:20:07;99056.47;;;28.81;39.07
10176;BME280;18221;38.704;0.152;2023-09-19T07:22:35;99059.53;;;28.89;39.17
10176;BME280;18221;38.704;0.152;2023-09-19T07:25:06;99066.13;;;28.88;39.67
10176;BME280;18221;38.704;0.152;2023-09-19T07:27:34;99074.19;;;28.78;40.47
10176;BME280;18221;38.704;0.152;2023-09-19T07:30:05;99069.25;;;28.75;40.49
10176;BME280;18221;38.704;0.152;2023-09-19T07:32:34;99075.88;;;28.84;40.90
10176;BME280;18221;38.704;0.152;2023-09-19T07:35:03;99079.84;;;28.93;40.56
10176;BME280;18221;38.704;0.152;2023-09-19T07:37:32;99086.38;;;28.92;41.01
10176;BME280;18221;38.704;0.152;2023-09-19T07:40:00;99094.94;;;29.01;40.71
10176;BME280;18221;38.704;0.152;2023-09-19T07:42:29;99082.13;;;29.01;39.57
10176;BME280;18221;38.704;0.152;2023-09-19T07:44:58;99086.59;;;29.12;39.01
10176;BME280;18221;38.704;0.152;2023-09-19T07:47:27;99082.69;;;29.03;39.32
10176;BME280;18221;38.704;0.152;2023-09-19T07:49:56;99081.53;;;28.99;39.69
10176;BME280;18221;38.704;0.152;2023-09-19T07:52:25;99075.94;;;28.89;40.25
10176;BME280;18221;38.704;0.152;2023-09-19T07:54:54;99071.94;;;28.97;40.76
10176;BME280;18221;38.704;0.152;2023-09-19T07:57:23;99069.53;;;29.00;40.87
10176;BME280;18221;38.704;0.152;2023-09-19T07:59:51;99056.69;;;29.01;41.31
10176;BME280;18221;38.704;0.152;2023-09-19T08:02:19;99058.63;;;29.05;42.07
10176;BME280;18221;38.704;0.152;2023-09-19T08:04:50;99054.38;;;29.14;42.27
10176;BME280;18221;38.704;0.152;2023-09-19T08:07:18;99053.78;;;29.12;42.77
10176;BME280;18221;38.704;0.152;2023-09-19T08:09:46;99060.06;;;29.13;43.16
10176;BME280;18221;38.704;0.152;2023-09-19T08:12:15;99069.63;;;29.10;43.16
10176;BME280;18221;38.704;0.152;2023-09-19T08:14:43;99066.84;;;28.84;43.43
10176;BME280;18221;38.704;0.152;2023-09-19T08:17:11;99062.44;;;28.77;43.39
10176;BME280;18221;38.704;0.152;2023-09-19T08:19:39;99079.59;;;28.73;43.49
10176;BME280;18221;38.704;0.152;2023-09-19T08:22:10;99079.78;;;28.66;42.92
10176;BME280;18221;38.704;0.152;2023-09-19T08:24:38;99077.44;;;28.75;42.02
10176;BME280;18221;38.704;0.152;2023-09-19T08:27:09;99087.28;;;28.76;42.01
10176;BME280;18221;38.704;0.152;2023-09-19T08:29:38;99078.38;;;28.64;41.55
10176;BME280;18221;38.704;0.152;2023-09-19T08:32:06;99075.03;;;28.40;40.40
10176;BME280;18221;38.704;0.152;2023-09-19T08:34:34;99088.84;;;28.29;38.20
10176;BME280;18221;38.704;0.152;2023-09-19T08:37:04;99085.28;;;28.28;36.32
10176;BME280;18221;38.704;0.152;2023-09-19T08:39:36;99083.28;;;28.24;35.45
10176;BME280;18221;38.704;0.152;2023-09-19T08:42:04;99074.66;;;28.32;36.62
10176;BME280;18221;38.704;0.152;2023-09-19T08:44:37;99082.38;;;28.56;38.33
10176;BME280;18221;38.704;0.152;2023-09-19T08:47:11;99085.75;;;28.63;40.44
10176;BME280;18221;38.704;0.152;2023-09-19T08:49:51;99091.03;;;28.70;43.10
10176;BME280;18221;38.704;0.152;2023-09-19T08:52:27;99090.25;;;28.96;43.31
10176;BME280;18221;38.704;0.152;2023-09-19T08:55:02;99099.16;;;28.87;43.93
10176;BME280;18221;38.704;0.152;2023-09-19T08:57:37;99104.94;;;28.90;44.11
10176;BME280;18221;38.704;0.152;2023-09-19T09:00:10;99119.34;;;29.07;43.75
10176;BME280;18221;38.704;0.152;2023-09-19T09:02:43;99124.34;;;29.15;43.80
10176;BME280;18221;38.704;0.152;2023-09-19T09:05:11;99124.34;;;29.15;43.16
10176;BME280;18221;38.704;0.152;2023-09-19T09:07:41;99135.81;;;29.12;42.62
10176;BME280;18221;38.704;0.152;2023-09-19T09:10:11;99132.91;;;28.97;41.33
10176;BME280;18221;38.704;0.152;2023-09-19T09:12:40;99125.41;;;29.09;41.04
10176;BME280;18221;38.704;0.152;2023-09-19T09:15:10;99128.25;;;29.19;40.88
10176;BME280;18221;38.704;0.152;2023-09-19T09:17:42;99138.03;;;29.37;42.52
10176;BME280;18221;38.704;0.152;2023-09-19T09:20:12;99138.34;;;29.41;43.19
10176;BME280;18221;38.704;0.152;2023-09-19T09:22:50;99136.69;;;29.40;43.40
10176;BME280;18221;38.704;0.152;2023-09-19T09:25:20;99135.56;;;29.35;43.75
10176;BME280;18221;38.704;0.152;2023-09-19T09:28:00;99127.19;;;29.47;44.05
10176;BME280;18221;38.704;0.152;2023-09-19T09:30:36;99128.03;;;29.48;43.72
10176;BME280;18221;38.704;0.152;2023-09-19T09:33:12;99132.25;;;29.60;43.56
10176;BME280;18221;38.704;0.152;2023-09-19T09:35:53;99132.84;;;29.67;43.16
10176;BME280;18221;38.704;0.152;2023-09-19T09:38:25;99127.25;;;29.79;43.04
10176;BME280;18221;38.704;0.152;2023-09-19T09:40:56;99120.06;;;29.78;42.99
10176;BME280;18221;38.704;0.152;2023-09-19T09:43:34;99123.59;;;29.73;43.43
10176;BME280;18221;38.704;0.152;2023-09-19T09:46:21;99116.53;;;29.77;43.17
10176;BME280;18221;38.704;0.152;2023-09-19T09:49:07;99119.03;;;29.79;43.41
10176;BME280;18221;38.704;0.152;2023-09-19T09:52:01;99115.72;;;29.77;43.39
10176;BME280;18221;38.704;0.152;2023-09-19T09:54:33;99110.94;;;29.67;43.59
10176;BME280;18221;38.704;0.152;2023-09-19T09:57:06;99096.34;;;29.57;43.81
10176;BME280;18221;38.704;0.152;2023-09-19T09:59:50;99090.72;;;29.68;43.73
10176;BME280;18221;38.704;0.152;2023-09-19T10:02:21;99087.66;;;29.65;43.69
10176;BME280;18221;38.704;0.152;2023-09-19T10:04:56;99097.47;;;29.56;43.68
10176;BME280;18221;38.704;0.152;2023-09-19T10:07:41;99092.28;;;29.59;43.38
10176;BME280;18221;38.704;0.152;2023-09-19T10:10:09;99091.00;;;29.67;43.03
10176;BME280;18221;38.704;0.152;2023-09-19T10:12:48;99069.63;;;29.64;42.95
10176;BME280;18221;38.704;0.152;2023-09-19T10:15:18;99068.47;;;29.60;43.53
10176;BME280;18221;38.704;0.152;2023-09-19T10:17:48;99070.59;;;29.53;43.87
10176;BME280;18221;38.704;0.152;2023-09-19T10:20:17;99062.00;;;29.39;43.86
10176;BME280;18221;38.704;0.152;2023-09-19T10:23:00;99078.78;;;29.48;43.74
10176;BME280;18221;38.704;0.152;2023-09-19T10:25:29;99079.81;;;29.42;43.28
10176;BME280;18221;38.704;0.152;2023-09-19T10:28:01;99080.88;;;29.35;43.69
10176;BME280;18221;38.704;0.152;2023-09-19T10:30:31;99089.41;;;29.17;43.97
10176;BME280;18221;38.704;0.152;2023-09-19T10:33:04;99080.91;;;28.92;45.00
10176;BME280;18221;38.704;0.152;2023-09-19T10:35:34;99083.28;;;28.62;46.94
10176;BME280;18221;38.704;0.152;2023-09-19T10:38:07;99079.81;;;28.28;47.68
10176;BME280;18221;38.704;0.152;2023-09-19T10:40:38;99072.66;;;27.89;48.34
10176;BME280;18221;38.704;0.152;2023-09-19T10:43:17;99078.50;;;27.64;48.54
10176;BME280;18221;38.704;0.152;2023-09-19T10:45:46;99071.84;;;27.27;49.23
10176;BME280;18221;38.704;0.152;2023-09-19T10:48:16;99067.81;;;27.01;49.45
10176;BME280;18221;38.704;0.152;2023-09-19T10:50:52;99061.19;;;26.57;49.93
10176;BME280;18221;38.704;0.152;2023-09-19T10:53:22;99068.22;;;26.42;50.45
10176;BME280;18221;38.704;0.152;2023-09-19T10:55:56;99076.22;;;26.60;50.42
10176;BME280;18221;38.704;0.152;2023-09-19T10:58:29;99065.00;;;26.56;50.42
10176;BME280;18221;38.704;0.152;2023-09-19T11:01:01;99065.00;;;26.56;50.34
10176;BME280;18221;38.704;0.152;2023-09-19T11:03:34;99059.38;;;26.34;50.36
10176;BME280;18221;38.704;0.152;2023-09-19T11:06:09;99059.94;;;26.36;50.50
10176;BME280;18221;38.704;0.152;2023-09-19T11:09:10;99056.66;;;26.34;50.31
10176;BME280;18221;38.704;0.152;2023-09-19T11:11:50;99059.25;;;26.29;51.04
10176;BME280;18221;38.704;0.152;2023-09-19T11:14:41;99049.28;;;26.47;50.79
10176;BME280;18221;38.704;0.152;2023-09-19T11:17:41;99036.59;;;26.52;50.73
10176;BME280;18221;38.704;0.152;2023-09-19T11:20:23;99043.41;;;26.78;50.49
10176;BME280;18221;38.704;0.152;2023-09-19T11:23:25;99050.78;;;26.94;50.51
10176;BME280;18221;38.704;0.152;2023-09-19T11:25:54;99053.28;;;26.95;50.73
10176;BME280;18221;38.704;0.152;2023-09-19T11:28:33;99052.75;;;26.70;50.98
10176;BME280;18221;38.704;0.152;2023-09-19T11:31:53;99052.09;;;26.91;50.88
10176;BME280;18221;38.704;0.152;2023-09-19T11:34:48;99041.94;;;26.87;50.00
10176;BME280;18221;38.704;0.152;2023-09-19T11:38:04;99045.75;;;27.31;49.47
10176;BME280;18221;38.704;0.152;2023-09-19T11:40:45;99048.28;;;27.21;49.32
10176;BME280;18221;38.704;0.152;2023-09-19T11:43:36;99045.47;;;27.32;48.58
10176;BME280;18221;38.704;0.152;2023-09-19T11:46:09;99046.19;;;27.39;48.76
10176;BME280;18221;38.704;0.152;2023-09-19T11:48:42;99050.25;;;27.53;48.11
10176;BME280;18221;38.704;0.152;2023-09-19T11:51:19;99044.97;;;27.64;47.60
10176;BME280;18221;38.704;0.152;2023-09-19T11:53:50;99043.81;;;27.76;47.42
10176;BME280;18221;38.704;0.152;2023-09-19T11:56:20;99047.00;;;27.90;47.36
10176;BME280;18221;38.704;0.152;2023-09-19T11:58:51;99041.88;;;28.10;46.82
10176;BME280;18221;38.704;0.152;2023-09-19T12:01:25;99041.63;;;28.33;47.17
10176;BME280;18221;38.704;0.152;2023-09-19T12:03:58;99044.94;;;28.57;47.06
10176;BME280;18221;38.704;0.152;2023-09-19T12:06:27;99042.16;;;28.73;46.37
10176;BME280;18221;38.704;0.152;2023-09-19T12:08:58;99028.50;;;28.73;46.16
10176;BME280;18221;38.704;0.152;2023-09-19T12:11:29;99013.00;;;28.57;45.63
10176;BME280;18221;38.704;0.152;2023-09-19T12:14:00;99011.28;;;28.73;45.26
10176;BME280;18221;38.704;0.152;2023-09-19T12:16:28;99008.75;;;28.93;44.62
10176;BME280;18221;38.704;0.152;2023-09-19T12:19:17;99006.72;;;29.10;44.43
10176;BME280;18221;38.704;0.152;2023-09-19T12:21:58;99011.16;;;29.16;44.59
10176;BME280;18221;38.704;0.152;2023-09-19T12:24:31;99012.63;;;29.24;44.43
10176;BME280;18221;38.704;0.152;2023-09-19T12:27:03;99012.72;;;29.34;44.45
10176;BME280;18221;38.704;0.152;2023-09-19T12:29:43;99014.47;;;29.45;44.23
10176;BME280;18221;38.704;0.152;2023-09-19T12:32:12;99012.66;;;29.61;43.79
10176;BME280;18221;38.704;0.152;2023-09-19T12:34:51;99009.38;;;29.59;43.84
10176;BME280;18221;38.704;0.152;2023-09-19T12:37:20;99005.81;;;29.58;44.04
10176;BME280;18221;38.704;0.152;2023-09-19T12:39:50;99011.84;;;29.60;44.04
10176;BME280;18221;38.704;0.152;2023-09-19T12:42:23;99007.78;;;29.68;44.22
10176;BME280;18221;38.704;0.152;2023-09-19T12:44:55;99008.50;;;29.85;44.17
10176;BME280;18221;38.704;0.152;2023-09-19T12:47:24;98995.97;;;29.99;43.97
10176;BME280;18221;38.704;0.152;2023-09-19T12:50:11;98980.69;;;30.08;43.70
10176;BME280;18221;38.704;0.152;2023-09-19T12:52:46;98979.38;;;30.21;43.66
10176;BME280;18221;38.704;0.152;2023-09-19T12:55:25;98974.00;;;30.36;42.83
10176;BME280;18221;38.704;0.152;2023-09-19T12:58:07;98974.78;;;30.31;42.71
10176;BME280;18221;38.704;0.152;2023-09-19T13:00:37;98967.91;;;30.24;43.43
10176;BME280;18221;38.704;0.152;2023-09-19T13:03:18;98967.09;;;30.33;43.07
10176;BME280;18221;38.704;0.152;2023-09-19T13:06:00;98968.47;;;30.31;43.24
10176;BME280;18221;38.704;0.152;2023-09-19T13:08:30;98957.28;;;30.37;43.48
10176;BME280;18221;38.704;0.152;2023-09-19T13:11:12;98949.63;;;30.39;43.11
10176;BME280;18221;38.704;0.152;2023-09-19T13:13:46;98945.50;;;30.37;43.35
10176;BME280;18221;38.704;0.152;2023-09-19T13:16:16;98950.09;;;30.26;43.37
10176;BME280;18221;38.704;0.152;2023-09-19T13:18:50;98953.91;;;30.25;43.31
10176;BME280;18221;38.704;0.152;2023-09-19T13:21:31;98960.47;;;30.19;43.80
10176;BME280;18221;38.704;0.152;2023-09-19T13:24:21;98960.41;;;30.09;44.00
10176;BME280;18221;38.704;0.152;2023-09-19T13:26:52;98961.50;;;30.03;44.24
10176;BME280;18221;38.704;0.152;2023-09-19T13:29:20;98948.94;;;30.12;44.11
10176;BME280;18221;38.704;0.152;2023-09-19T13:31:48;98959.28;;;30.00;44.21
10176;BME280;18221;38.704;0.152;2023-09-19T13:34:17;98945.34;;;30.07;44.33
10176;BME280;18221;38.704;0.152;2023-09-19T13:36:47;98929.44;;;30.04;44.78
10176;BME280;18221;38.704;0.152;2023-09-19T13:39:15;98918.81;;;30.17;44.61
10176;BME280;18221;38.704;0.152;2023-09-19T13:41:45;98921.03;;;30.20;44.66